Time;durP1;ratioP1;P1;durP2;ratioP2;P2;SDS_P1;SDS_P2;PMS_P1;PMS_P2;Temp;Humidity;BMP_temperature;BMP_pressure;BME280_temperature;BME280_humidity;BME280_pressure;Samples;Min_cycle;Max_cycle;Signal;HPM_P1;HPM_P2
2021/10/18 00:02:03;;;;;;;;;;;;;;;;;;5088324;28;19920;-79
2021/10/18 00:04:28;;;;;;;;;;;;;;;;;;5096327;28;19923;-79
2021/10/18 00:06:54;;;;;;;;;;;;;;;;;;5096095;28;20379;-80
2021/10/18 00:09:20;;;;;;;;;;;;;;;;;;5096147;28;19916;-79
2021/10/18 00:11:45;;;;;;;;;;;;;;;;;;5096096;28;19940;-79
2021/10/18 00:14:11;;;;;;;;;;;;;;;;;;5096083;28;20005;-80
2021/10/18 00:16:37;;;;;;;;;;;;;;;;;;5096166;28;19917;-79
2021/10/18 00:19:03;;;;;;;;;;;;;;;;;;5096027;28;19923;-79
2021/10/18 00:21:29;;;;;;;;;;;;;;;;;;5096464;28;19916;-80
2021/10/18 00:23:54;;;;;;;;;;;;;;;;;;5095930;28;19920;-82
2021/10/18 00:26:19;;;;;;;;;;;;;;;;;;5096188;28;20670;-79
2021/10/18 00:28:45;;;;;;;;;;;;;;;;;;5095756;28;19927;-79
2021/10/18 00:31:10;;;;;;;;;;;;;;;;;;5095754;28;20291;-79
2021/10/18 00:33:36;;;;;;;;;;;;;;;;;;5095614;28;20267;-79
2021/10/18 00:36:01;;;;;;;;;;;;;;;;;;5095644;28;19961;-79
2021/10/18 00:38:27;;;;;;;;;;;;;;;;;;5095537;28;19916;-79
2021/10/18 00:40:52;;;;;;;;;;;;;;;;;;5095566;28;19916;-79
2021/10/18 00:43:17;;;;;;;;;;;;;;;;;;5095660;28;19912;-79
2021/10/18 00:45:43;;;;;;;;;;;;;;;;;;5095565;28;20410;-79
2021/10/18 00:48:09;;;;;;;;;;;;;;;;;;5095427;28;20330;-79
2021/10/18 00:50:34;;;;;;;;;;;;;;;;;;5095392;28;19916;-79
2021/10/18 00:53:00;;;;;;;;;;;;;;;;;;5095490;28;19916;-79
2021/10/18 00:55:25;;;;;;;;;;;;;;;;;;5095232;28;20415;-79
2021/10/18 00:57:51;;;;;;;;;;;;;;;;;;5093911;28;20003;-79
2021/10/18 01:00:17;;;;;;;;;;;;;;;;;;5095168;28;19948;-79
2021/10/18 01:02:42;;;;;;;;;;;;;;;;;;5095299;28;19970;-79
2021/10/18 01:05:08;;;;;;;;;;;;;;;;;;5095083;28;19916;-79
2021/10/18 01:07:34;;;;;;;;;;;;;;;;;;5094988;28;20364;-79
2021/10/18 01:10:00;;;;;;;;;;;;;;;;;;5095005;28;19916;-79
2021/10/18 01:12:25;;;;;;;;;;;;;;;;;;5095078;28;20034;-80
2021/10/18 01:14:51;;;;;;;;;;;;;;;;;;5094904;28;19912;-79
2021/10/18 01:17:16;;;;;;;;;;;;;;;;;;5094763;28;19923;-79
2021/10/18 01:19:42;;;;;;;;;;;;;;;;;;5094777;28;19916;-79
2021/10/18 01:22:07;;;;;;;;;;;;;;;;;;5094697;28;20317;-80
2021/10/18 01:24:33;;;;;;;;;;;;;;;;;;5094925;28;19951;-79
2021/10/18 01:26:59;;;;;;;;;;;;;;;;;;5094684;28;19969;-80
2021/10/18 01:29:24;;;;;;;;;;;;;;;;;;5094685;28;19920;-79
2021/10/18 01:31:50;;;;;;;;;;;;;;;;;;5094666;28;19916;-82
2021/10/18 01:34:16;;;;;;;;;;;;;;;;;;5094846;28;20375;-79
2021/10/18 01:36:42;;;;;;;;;;;;;;;;;;5094899;28;20006;-80
2021/10/18 01:39:08;;;;;;;;;;;;;;;;;;5095486;28;19923;-80
2021/10/18 01:41:33;;;;;;;;;;;;;;;;;;5107335;28;19920;-80
2021/10/18 01:43:59;;;;;;;;;;;;;;;;;;5101470;28;19916;-79
2021/10/18 01:46:24;;;;;;;;;;;;;;;;;;5094691;28;20264;-80
2021/10/18 01:48:49;;;;;;;;;;;;;;;;;;5094634;28;20372;-79
2021/10/18 01:51:15;;;;;;;;;;;;;;;;;;5094376;28;19916;-79
2021/10/18 01:53:40;;;;;;;;;;;;;;;;;;5093458;28;19947;-79
2021/10/18 01:56:06;;;;;;;;;;;;;;;;;;5094360;28;19916;-79
2021/10/18 01:58:32;;;;;;;;;;;;;;;;;;5094351;28;19923;-79
2021/10/18 02:01:01;;;;;;;;;;;;;;;;;;5094378;28;20364;-79
2021/10/18 02:03:26;;;;;;;;;;;;;;;;;;5094182;28;19912;-79
2021/10/18 02:05:52;;;;;;;;;;;;;;;;;;5094109;28;20249;-79
2021/10/18 02:08:17;;;;;;;;;;;;;;;;;;5093972;28;19959;-79
2021/10/18 02:10:43;;;;;;;;;;;;;;;;;;5094053;28;19967;-78
2021/10/18 02:13:08;;;;;;;;;;;;;;;;;;5094085;28;20298;-79
2021/10/18 02:15:34;;;;;;;;;;;;;;;;;;5094161;28;20029;-80
2021/10/18 02:17:59;;;;;;;;;;;;;;;;;;5093985;28;19985;-79
2021/10/18 02:20:25;;;;;;;;;;;;;;;;;;5094221;28;20022;-79
2021/10/18 02:22:50;;;;;;;;;;;;;;;;;;5094175;28;19965;-79
2021/10/18 02:25:16;;;;;;;;;;;;;;;;;;5094258;28;19923;-79
2021/10/18 02:27:42;;;;;;;;;;;;;;;;;;5094337;28;19962;-79
2021/10/18 02:30:09;;;;;;;;;;;;;;;;;;5092494;28;19938;-79
2021/10/18 02:32:35;;;;;;;;;;;;;;;;;;5094005;28;19924;-79
2021/10/18 02:35:00;;;;;;;;;;;;;;;;;;5093870;28;20366;-79
2021/10/18 02:37:25;;;;;;;;;;;;;;;;;;5093794;28;19916;-79
2021/10/18 02:39:51;;;;;;;;;;;;;;;;;;5094057;28;19942;-79
2021/10/18 02:42:16;;;;;;;;;;;;;;;;;;5094089;28;19925;-79
2021/10/18 02:44:43;;;;;;;;;;;;;;;;;;5094199;28;19920;-79
2021/10/18 02:47:09;;;;;;;;;;;;;;;;;;5093829;28;19923;-79
2021/10/18 02:49:35;;;;;;;;;;;;;;;;;;5093788;28;19916;-79
2021/10/18 02:52:00;;;;;;;;;;;;;;;;;;5093782;28;19938;-80
2021/10/18 02:54:26;;;;;;;;;;;;;;;;;;5093702;28;20372;-79
2021/10/18 02:56:52;;;;;;;;;;;;;;;;;;5095995;28;19942;-79
2021/10/18 02:59:17;;;;;;;;;;;;;;;;;;5097550;28;19923;-79
2021/10/18 03:01:43;;;;;;;;;;;;;;;;;;5097513;28;19920;-79
2021/10/18 03:04:08;;;;;;;;;;;;;;;;;;5097508;28;19970;-79
2021/10/18 03:06:34;;;;;;;;;;;;;;;;;;5096001;28;20014;-79
2021/10/18 03:09:01;;;;;;;;;;;;;;;;;;5097416;28;20008;-79
2021/10/18 03:11:26;;;;;;;;;;;;;;;;;;5097270;28;20007;-80
2021/10/18 03:13:51;;;;;;;;;;;;;;;;;;5096043;28;20002;-79
2021/10/18 03:16:17;;;;;;;;;;;;;;;;;;5097215;28;19920;-79
2021/10/18 03:18:42;;;;;;;;;;;;;;;;;;5097111;28;19916;-79
2021/10/18 03:21:08;;;;;;;;;;;;;;;;;;5097174;28;19960;-79
2021/10/18 03:23:33;;;;;;;;;;;;;;;;;;5097230;28;19920;-79
2021/10/18 03:25:59;;;;;;;;;;;;;;;;;;5097040;28;19994;-79
2021/10/18 03:28:24;;;;;;;;;;;;;;;;;;5097090;28;19916;-79
2021/10/18 03:30:50;;;;;;;;;;;;;;;;;;5097074;28;19912;-79
2021/10/18 03:33:15;;;;;;;;;;;;;;;;;;5096934;28;20413;-79
2021/10/18 03:35:41;;;;;;;;;;;;;;;;;;5096858;28;19916;-79
2021/10/18 03:38:06;;;;;;;;;;;;;;;;;;5096659;28;19963;-79
2021/10/18 03:40:31;;;;;;;;;;;;;;;;;;5096744;28;19916;-79
2021/10/18 03:42:57;;;;;;;;;;;;;;;;;;5097059;28;19912;-80
2021/10/18 03:45:22;;;;;;;;;;;;;;;;;;5096651;28;19916;-80
2021/10/18 03:47:48;;;;;;;;;;;;;;;;;;5096830;28;20434;-79
2021/10/18 03:50:15;;;;;;;;;;;;;;;;;;5096484;28;20279;-81
2021/10/18 03:52:40;;;;;;;;;;;;;;;;;;5129433;27;19923;-81
2021/10/18 03:55:06;;;;;;;;;;;;;;;;;;5096526;28;19916;-82
2021/10/18 03:57:31;;;;;;;;;;;;;;;;;;5096303;28;19916;-83
2021/10/18 03:59:57;;;;;;;;;;;;;;;;;;5096642;28;20383;-82
2021/10/18 04:02:22;;;;;;;;;;;;;;;;;;5096282;28;19912;-81
2021/10/18 04:04:48;;;;;;;;;;;;;;;;;;5096266;28;20288;-81
2021/10/18 04:07:13;;;;;;;;;;;;;;;;;;5096065;28;20006;-81
2021/10/18 04:09:39;;;;;;;;;;;;;;;;;;5097117;28;19974;-81
2021/10/18 04:12:04;;;;;;;;;;;;;;;;;;5096378;28;19916;-81
2021/10/18 04:14:30;;;;;;;;;;;;;;;;;;5096182;28;20020;-81
2021/10/18 04:16:55;;;;;;;;;;;;;;;;;;5096129;28;19916;-82
2021/10/18 04:19:21;;;;;;;;;;;;;;;;;;5096524;28;19933;-81
2021/10/18 04:21:46;;;;;;;;;;;;;;;;;;5094883;28;19923;-82
2021/10/18 04:24:12;;;;;;;;;;;;;;;;;;5096132;28;20376;-81
2021/10/18 04:26:37;;;;;;;;;;;;;;;;;;5095319;28;19916;-81
2021/10/18 04:29:04;;;;;;;;;;;;;;;;;;5094062;28;19916;-82
2021/10/18 04:31:30;;;;;;;;;;;;;;;;;;5081569;28;19927;-81
2021/10/18 04:33:56;;;;;;;;;;;;;;;;;;5078404;28;20006;-80
2021/10/18 04:36:22;;;;;;;;;;;;;;;;;;5095562;28;19923;-81
2021/10/18 04:38:48;;;;;;;;;;;;;;;;;;5095662;28;19977;-82
2021/10/18 04:41:13;;;;;;;;;;;;;;;;;;5087681;28;20376;-82
2021/10/18 04:43:39;;;;;;;;;;;;;;;;;;5075485;28;20370;-83
2021/10/18 04:46:04;;;;;;;;;;;;;;;;;;5075363;28;19917;-81
2021/10/18 04:48:30;;;;;;;;;;;;;;;;;;5075159;28;19916;-82
2021/10/18 04:50:55;;;;;;;;;;;;;;;;;;5075086;28;19920;-82
2021/10/18 04:53:20;;;;;;;;;;;;;;;;;;5075079;28;19917;-81
2021/10/18 04:55:46;;;;;;;;;;;;;;;;;;5075185;28;19928;-81
2021/10/18 04:58:11;;;;;;;;;;;;;;;;;;5074890;28;19920;-81
2021/10/18 05:00:40;;;;;;;;;;;;;;;;;;5073738;28;19922;-81
2021/10/18 05:03:06;;;;;;;;;;;;;;;;;;5075168;28;19917;-82
2021/10/18 05:05:34;;;;;;;;;;;;;;;;;;5089171;28;20260;-79
2021/10/18 05:08:03;;;;;;;;;;;;;;;;;;5094706;28;19965;-79
2021/10/18 05:10:29;;;;;;;;;;;;;;;;;;5095288;28;19917;-78
2021/10/18 05:12:55;;;;;;;;;;;;;;;;;;5094869;28;19969;-79
2021/10/18 05:15:20;;;;;;;;;;;;;;;;;;5094905;28;19923;-78
2021/10/18 05:17:46;;;;;;;;;;;;;;;;;;5094953;28;19920;-78
2021/10/18 05:20:11;;;;;;;;;;;;;;;;;;5093531;28;19923;-78
2021/10/18 05:22:36;;;;;;;;;;;;;;;;;;5076160;28;19912;-78
2021/10/18 05:25:02;;;;;;;;;;;;;;;;;;5084188;28;19917;-77
2021/10/18 05:27:28;;;;;;;;;;;;;;;;;;5090660;28;20268;-86
2021/10/18 05:29:53;;;;;;;;;;;;;;;;;;5092401;28;19923;-76
2021/10/18 05:32:19;;;;;;;;;;;;;;;;;;5094781;28;19922;-76
2021/10/18 05:34:44;;;;;;;;;;;;;;;;;;5094646;28;19951;-77
2021/10/18 05:37:09;;;;;;;;;;;;;;;;;;5094586;28;19959;-77
2021/10/18 05:39:35;;;;;;;;;;;;;;;;;;5093284;28;19916;-77
2021/10/18 05:42:00;;;;;;;;;;;;;;;;;;5094578;28;19955;-78
2021/10/18 05:44:26;;;;;;;;;;;;;;;;;;5094562;28;20486;-78
2021/10/18 05:46:51;;;;;;;;;;;;;;;;;;5094457;28;19917;-79
2021/10/18 05:49:17;;;;;;;;;;;;;;;;;;5093018;28;19912;-79
2021/10/18 05:51:42;;;;;;;;;;;;;;;;;;5090596;28;19998;-79
2021/10/18 05:54:08;;;;;;;;;;;;;;;;;;5074457;28;19913;-80
2021/10/18 06:08:44;;;;;;;;;;;;;;;;;;5072694;28;20446;-79
2021/10/18 06:11:10;;;;;;;;;;;;;;;;;;5073550;28;19920;-79
2021/10/18 06:13:36;;;;;;;;;;;;;;;;;;5073274;28;19938;-79
2021/10/18 06:16:02;;;;;;;;;;;;;;;;;;5073378;28;20360;-79
2021/10/18 06:18:27;;;;;;;;;;;;;;;;;;5073180;28;19920;-81
2021/10/18 06:20:53;;;;;;;;;;;;;;;;;;5073788;28;19955;-79
2021/10/18 06:23:19;;;;;;;;;;;;;;;;;;5073409;28;19977;-79
2021/10/18 06:25:45;;;;;;;;;;;;;;;;;;5073231;28;19942;-79
2021/10/18 06:28:11;;;;;;;;;;;;;;;;;;5073211;28;19916;-81
2021/10/18 06:30:37;;;;;;;;;;;;;;;;;;5073885;28;20292;-80
2021/10/18 06:33:03;;;;;;;;;;;;;;;;;;5077329;28;19928;-78
2021/10/18 06:35:29;;;;;;;;;;;;;;;;;;5075806;28;19916;-78
2021/10/18 06:37:55;;;;;;;;;;;;;;;;;;5075658;28;20280;-78
2021/10/18 06:40:20;;;;;;;;;;;;;;;;;;5077103;28;19923;-78
2021/10/18 06:42:46;;;;;;;;;;;;;;;;;;5077029;28;19928;-80
2021/10/18 06:45:11;;;;;;;;;;;;;;;;;;5076992;28;19919;-79
2021/10/18 06:47:37;;;;;;;;;;;;;;;;;;5076828;28;19926;-79
2021/10/18 06:50:03;;;;;;;;;;;;;;;;;;5077096;28;19913;-78
2021/10/18 06:52:32;;;;;;;;;;;;;;;;;;5076886;28;19917;-79
2021/10/18 06:54:59;;;;;;;;;;;;;;;;;;5076774;28;19916;-78
2021/10/18 06:57:25;;;;;;;;;;;;;;;;;;5076976;28;19928;-79
2021/10/18 06:59:50;;;;;;;;;;;;;;;;;;5078071;28;19917;-81
2021/10/18 07:02:16;;;;;;;;;;;;;;;;;;5076666;28;19912;-80
2021/10/18 07:04:41;;;;;;;;;;;;;;;;;;5077107;28;19946;-82
2021/10/18 07:07:07;;;;;;;;;;;;;;;;;;5076541;28;19968;-82
2021/10/18 07:09:32;;;;;;;;;;;;;;;;;;5076616;28;20013;-82
2021/10/18 07:11:57;;;;;;;;;;;;;;;;;;5076596;28;19917;-82
2021/10/18 07:14:23;;;;;;;;;;;;;;;;;;5076269;28;20210;-81
2021/10/18 07:16:48;;;;;;;;;;;;;;;;;;5076603;28;19963;-79
2021/10/18 07:19:14;;;;;;;;;;;;;;;;;;5078007;28;19921;-80
2021/10/18 07:21:45;;;;;;;;;;;;;;;;;;5081532;28;19917;-79
2021/10/18 07:24:10;;;;;;;;;;;;;;;;;;5083364;28;19938;-79
2021/10/18 07:26:36;;;;;;;;;;;;;;;;;;5081032;28;19922;-82
2021/10/18 07:29:01;;;;;;;;;;;;;;;;;;5077521;28;19954;-80
2021/10/18 07:31:27;;;;;;;;;;;;;;;;;;5077107;28;20383;-79
2021/10/18 07:33:57;;;;;;;;;;;;;;;;;;5109612;28;19917;-79
2021/10/18 07:36:27;;;;;;;;;;;;;;;;;;5078911;28;19928;-78
2021/10/18 07:38:52;;;;;;;;;;;;;;;;;;5094172;28;19931;-80
2021/10/18 07:41:24;;;;;;;;;;;;;;;;;;5104417;28;19916;-85
2021/10/18 07:43:49;;;;;;;;;;;;;;;;;;5104476;28;19916;-81
2021/10/18 07:46:15;;;;;;;;;;;;;;;;;;5101006;28;19916;-79
2021/10/18 07:48:41;;;;;;;;;;;;;;;;;;5100496;28;19917;-79
2021/10/18 07:51:06;;;;;;;;;;;;;;;;;;5097978;28;19938;-79
2021/10/18 07:53:32;;;;;;;;;;;;;;;;;;5096858;28;19916;-82
2021/10/18 07:55:57;;;;;;;;;;;;;;;;;;5097258;28;19958;-79
2021/10/18 07:58:23;;;;;;;;;;;;;;;;;;5096869;28;19916;-80
2021/10/18 08:00:48;;;;;;;;;;;;;;;;;;5096665;28;19915;-79
2021/10/18 08:03:17;;;;;;;;;;;;;;;;;;5099602;28;20073;-82
2021/10/18 08:05:42;;;;;;;;;;;;;;;;;;5098583;28;20014;-79
2021/10/18 08:08:10;;;;;;;;;;;;;;;;;;5100229;28;19959;-80
2021/10/18 08:10:36;;;;;;;;;;;;;;;;;;5097950;28;19916;-78
2021/10/18 08:13:04;;;;;;;;;;;;;;;;;;5097681;28;19957;-77
2021/10/18 08:15:34;;;;;;;;;;;;;;;;;;5096394;28;20361;-79
2021/10/18 08:18:00;;;;;;;;;;;;;;;;;;5105257;28;19938;-78
2021/10/18 08:20:26;;;;;;;;;;;;;;;;;;5096295;28;19920;-77
2021/10/18 08:22:51;;;;;;;;;;;;;;;;;;5095542;28;20364;-79
2021/10/18 08:25:18;;;;;;;;;;;;;;;;;;5096512;28;19922;-77
2021/10/18 08:27:43;;;;;;;;;;;;;;;;;;5099110;28;20003;-77
2021/10/18 08:30:09;;;;;;;;;;;;;;;;;;5098835;28;19939;-77
2021/10/18 08:32:36;;;;;;;;;;;;;;;;;;5098705;28;19927;-77
2021/10/18 08:35:03;;;;;;;;;;;;;;;;;;5098920;28;19916;-77
2021/10/18 08:40:16;;;;;;;;;;;;;;;;;;5099361;28;19923;-79
2021/10/18 08:45:28;;;;;;;;;;;;;;;;;;5091127;28;19999;-80
2021/10/18 08:47:54;;;;;;;;;;;;;;;;;;5095115;28;19916;-81
2021/10/18 08:50:22;;;;;;;;;;;;;;;;;;5099662;28;19922;-79
2021/10/18 08:52:48;;;;;;;;;;;;;;;;;;5102225;28;19916;-80
2021/10/18 08:55:19;;;;;;;;;;;;;;;;;;5104447;28;20027;-82
2021/10/18 08:57:45;;;;;;;;;;;;;;;;;;5100690;28;19920;-80
2021/10/18 09:00:33;;;;;;;;;;;;;;;;;;5100348;28;20449;-78
2021/10/18 09:02:58;;;;;;;;;;;;;;;;;;5099969;28;19916;-79
2021/10/18 09:05:26;;;;;;;;;;;;;;;;;;5099235;28;19946;-82
2021/10/18 09:07:52;;;;;;;;;;;;;;;;;;5100559;28;19924;-81
2021/10/18 09:10:17;;;;;;;;;;;;;;;;;;5098968;28;20272;-79
2021/10/18 09:12:44;;;;;;;;;;;;;;;;;;5095213;28;20330;-79
2021/10/18 09:15:22;;;;;;;;;;;;;;;;;;5094642;28;20336;-79
2021/10/18 09:17:55;;;;;;;;;;;;;;;;;;5094494;28;19916;-81
2021/10/18 09:20:26;;;;;;;;;;;;;;;;;;5095077;28;20283;-79
2021/10/18 09:22:52;;;;;;;;;;;;;;;;;;5093098;28;20289;-78
2021/10/18 09:25:40;;;;;;;;;;;;;;;;;;5094457;28;19967;-77
2021/10/18 09:28:08;;;;;;;;;;;;;;;;;;5095931;28;19916;-77
2021/10/18 09:30:35;;;;;;;;;;;;;;;;;;5098691;28;20015;-78
2021/10/18 09:33:02;;;;;;;;;;;;;;;;;;5098545;28;19937;-79
2021/10/18 09:35:27;;;;;;;;;;;;;;;;;;5099106;28;19920;-79
2021/10/18 09:37:53;;;;;;;;;;;;;;;;;;5099619;28;19916;-78
2021/10/18 09:40:54;;;;;;;;;;;;;;;;;;5098893;28;19922;-78
2021/10/18 09:43:59;;;;;;;;;;;;;;;;;;5087153;28;19989;-79
2021/10/18 10:53:11;;;;;;;;;;;;;;;;;;5097018;28;19965;-79
2021/10/18 10:55:40;;;;;;;;;;;;;;;;;;5096992;28;19927;-80
2021/10/18 10:58:28;;;;;;;;;;;;;;;;;;5101291;28;19916;-78
2021/10/18 11:00:53;;;;;;;;;;;;;;;;;;5098508;28;19916;-79
2021/10/18 11:03:35;;;;;;;;;;;;;;;;;;5098053;28;19916;-78
2021/10/18 11:06:03;;;;;;;;;;;;;;;;;;5100660;28;19923;-79
2021/10/18 11:08:31;;;;;;;;;;;;;;;;;;5100663;28;19959;-78
2021/10/18 11:11:12;;;;;;;;;;;;;;;;;;5100775;28;19954;-81
2021/10/18 11:13:54;;;;;;;;;;;;;;;;;;5105323;28;19927;-77
2021/10/18 11:16:24;;;;;;;;;;;;;;;;;;5134456;27;19924;-78
2021/10/18 11:18:50;;;;;;;;;;;;;;;;;;5107307;28;19959;-77
2021/10/18 11:21:21;;;;;;;;;;;;;;;;;;5099703;28;20287;-78
2021/10/18 11:23:56;;;;;;;;;;;;;;;;;;5102893;28;19916;-83
2021/10/18 11:26:21;;;;;;;;;;;;;;;;;;5099538;28;19916;-82
2021/10/18 11:28:50;;;;;;;;;;;;;;;;;;5101558;28;19912;-84
2021/10/18 11:31:16;;;;;;;;;;;;;;;;;;5110234;28;19916;-83
2021/10/18 11:33:57;;;;;;;;;;;;;;;;;;5099904;28;19991;-81
2021/10/18 11:36:23;;;;;;;;;;;;;;;;;;5097776;28;19912;-83
2021/10/18 11:38:48;;;;;;;;;;;;;;;;;;5098847;28;19926;-82
2021/10/18 11:41:14;;;;;;;;;;;;;;;;;;5097434;28;19978;-82
2021/10/18 11:43:47;;;;;;;;;;;;;;;;;;5096930;28;19965;-83
2021/10/18 11:46:12;;;;;;;;;;;;;;;;;;5130961;27;19965;-82
2021/10/18 11:48:38;;;;;;;;;;;;;;;;;;5101862;28;19916;-83
2021/10/18 11:51:10;;;;;;;;;;;;;;;;;;5104350;28;20389;-84
2021/10/18 11:53:40;;;;;;;;;;;;;;;;;;5104894;28;20371;-84
2021/10/18 11:56:05;;;;;;;;;;;;;;;;;;5098638;28;19943;-83
2021/10/18 11:58:35;;;;;;;;;;;;;;;;;;5095691;28;20368;-87
2021/10/18 12:01:14;;;;;;;;;;;;;;;;;;5101430;28;19920;-85
2021/10/18 12:03:40;;;;;;;;;;;;;;;;;;5102554;28;19919;-86
2021/10/18 12:06:07;;;;;;;;;;;;;;;;;;5100204;28;19916;-85
2021/10/18 12:08:36;;;;;;;;;;;;;;;;;;5102448;28;19983;-85
2021/10/18 12:11:03;;;;;;;;;;;;;;;;;;5101841;28;19916;-84
2021/10/18 12:13:32;;;;;;;;;;;;;;;;;;5102269;28;19983;-86
2021/10/18 12:16:04;;;;;;;;;;;;;;;;;;5103178;28;19933;-86
2021/10/18 12:18:36;;;;;;;;;;;;;;;;;;5101681;28;20390;-84
2021/10/18 12:21:06;;;;;;;;;;;;;;;;;;5103194;28;20399;-85
2021/10/18 12:23:33;;;;;;;;;;;;;;;;;;5102466;28;19923;-85
2021/10/18 12:25:58;;;;;;;;;;;;;;;;;;5100282;28;20003;-84
2021/10/18 12:28:40;;;;;;;;;;;;;;;;;;5102871;28;19970;-84
2021/10/18 12:31:06;;;;;;;;;;;;;;;;;;5103318;28;19916;-85
2021/10/18 12:33:39;;;;;;;;;;;;;;;;;;5100397;28;19923;-86
2021/10/18 12:36:07;;;;;;;;;;;;;;;;;;5102569;28;19920;-85
2021/10/18 12:38:36;;;;;;;;;;;;;;;;;;5135076;27;19971;-87
2021/10/18 12:41:20;;;;;;;;;;;;;;;;;;5134930;27;19916;-87
2021/10/18 12:43:50;;;;;;;;;;;;;;;;;;5104388;28;19919;-88
2021/10/18 12:46:21;;;;;;;;;;;;;;;;;;5102916;28;19924;-88
2021/10/18 12:49:22;;;;;;;;;;;;;;;;;;5103391;28;19924;-86
2021/10/18 12:51:47;;;;;;;;;;;;;;;;;;5081070;28;19920;-88
2021/10/18 12:54:48;;;;;;;;;;;;;;;;;;5107250;28;19977;-88
2021/10/18 12:57:14;;;;;;;;;;;;;;;;;;5096264;28;19924;-84
2021/10/18 12:59:59;;;;;;;;;;;;;;;;;;5098037;28;19911;-85
2021/10/18 13:02:24;;;;;;;;;;;;;;;;;;5084025;28;19929;-86
2021/10/18 13:05:05;;;;;;;;;;;;;;;;;;5074719;28;19946;-87
2021/10/18 13:07:33;;;;;;;;;;;;;;;;;;5074703;28;19932;-83
2021/10/18 13:09:59;;;;;;;;;;;;;;;;;;5073791;28;19979;-86
2021/10/18 13:12:26;;;;;;;;;;;;;;;;;;5074907;28;19924;-86
2021/10/18 13:14:54;;;;;;;;;;;;;;;;;;5076069;28;19919;-84
2021/10/18 13:17:20;;;;;;;;;;;;;;;;;;5072233;28;19923;-78
2021/10/18 13:19:46;;;;;;;;;;;;;;;;;;5073289;28;19925;-82
2021/10/18 13:22:11;;;;;;;;;;;;;;;;;;5072979;28;20399;-80
2021/10/18 13:24:37;;;;;;;;;;;;;;;;;;5072573;28;19916;-81
2021/10/18 13:27:04;;;;;;;;;;;;;;;;;;5079198;28;20011;-84
2021/10/18 13:29:30;;;;;;;;;;;;;;;;;;5056068;28;20380;-85
2021/10/18 13:31:55;;;;;;;;;;;;;;;;;;5068584;28;19924;-83
2021/10/18 13:34:23;;;;;;;;;;;;;;;;;;5075347;28;19917;-80
2021/10/18 13:36:49;;;;;;;;;;;;;;;;;;5080573;28;19988;-80
2021/10/18 13:39:14;;;;;;;;;;;;;;;;;;5077374;28;20374;-80
2021/10/18 13:41:40;;;;;;;;;;;;;;;;;;5078218;28;19916;-80
2021/10/18 13:44:08;;;;;;;;;;;;;;;;;;5078165;28;19916;-81
2021/10/18 13:46:34;;;;;;;;;;;;;;;;;;5078338;28;19950;-80
2021/10/18 13:49:00;;;;;;;;;;;;;;;;;;5077788;28;19924;-79
2021/10/18 13:51:26;;;;;;;;;;;;;;;;;;5078994;28;19913;-79
2021/10/18 13:53:53;;;;;;;;;;;;;;;;;;5077661;28;19916;-77
2021/10/18 13:56:20;;;;;;;;;;;;;;;;;;5079015;28;20395;-79
2021/10/18 13:58:46;;;;;;;;;;;;;;;;;;5077215;28;19942;-79
2021/10/18 14:01:12;;;;;;;;;;;;;;;;;;5073746;28;19917;-79
2021/10/18 14:03:38;;;;;;;;;;;;;;;;;;5073706;28;19919;-78
2021/10/18 14:06:07;;;;;;;;;;;;;;;;;;5078302;28;19932;-78
2021/10/18 14:08:33;;;;;;;;;;;;;;;;;;5077469;28;20289;-78
2021/10/18 14:11:01;;;;;;;;;;;;;;;;;;5076846;28;21335;-79
2021/10/18 14:13:26;;;;;;;;;;;;;;;;;;5078074;28;19916;-79
2021/10/18 14:15:52;;;;;;;;;;;;;;;;;;5077815;28;19917;-81
2021/10/18 14:18:17;;;;;;;;;;;;;;;;;;5074734;28;20353;-78
2021/10/18 14:20:44;;;;;;;;;;;;;;;;;;5077131;28;19940;-78
2021/10/18 14:23:09;;;;;;;;;;;;;;;;;;5077025;28;19913;-78
2021/10/18 14:25:35;;;;;;;;;;;;;;;;;;5077123;28;19921;-79
2021/10/18 14:28:03;;;;;;;;;;;;;;;;;;5076770;28;19913;-80
2021/10/18 14:30:28;;;;;;;;;;;;;;;;;;5076555;28;19920;-79
2021/10/18 14:32:57;;;;;;;;;;;;;;;;;;5076917;28;20338;-79
2021/10/18 14:35:22;;;;;;;;;;;;;;;;;;5076495;28;19912;-78
2021/10/18 14:37:48;;;;;;;;;;;;;;;;;;5076749;28;20023;-79
2021/10/18 14:40:13;;;;;;;;;;;;;;;;;;5077896;28;19916;-80
2021/10/18 14:42:39;;;;;;;;;;;;;;;;;;5076291;28;19916;-79
2021/10/18 14:45:05;;;;;;;;;;;;;;;;;;5072467;28;19924;-79
2021/10/18 14:47:31;;;;;;;;;;;;;;;;;;5073330;28;19917;-79
2021/10/18 14:49:56;;;;;;;;;;;;;;;;;;5073000;28;20281;-78
2021/10/18 14:52:23;;;;;;;;;;;;;;;;;;5076027;28;19920;-79
2021/10/18 14:54:49;;;;;;;;;;;;;;;;;;5078241;28;19923;-79
2021/10/18 14:57:14;;;;;;;;;;;;;;;;;;5080658;28;19928;-79
2021/10/18 14:59:43;;;;;;;;;;;;;;;;;;5078927;28;20337;-78
2021/10/18 15:02:12;;;;;;;;;;;;;;;;;;5076040;28;19966;-78
2021/10/18 15:04:38;;;;;;;;;;;;;;;;;;5076667;28;19962;-79
2021/10/18 15:07:05;;;;;;;;;;;;;;;;;;5076591;28;19928;-78
2021/10/18 15:09:31;;;;;;;;;;;;;;;;;;5076721;28;19924;-78
2021/10/18 15:11:57;;;;;;;;;;;;;;;;;;5076540;28;19923;-79
2021/10/18 15:14:22;;;;;;;;;;;;;;;;;;5076398;28;19916;-78
2021/10/18 15:16:48;;;;;;;;;;;;;;;;;;5080742;28;19938;-77
2021/10/18 15:19:14;;;;;;;;;;;;;;;;;;5080649;28;19977;-78
2021/10/18 15:21:40;;;;;;;;;;;;;;;;;;5080778;28;20281;-77
2021/10/18 15:24:08;;;;;;;;;;;;;;;;;;5080465;28;19916;-77
2021/10/18 15:26:34;;;;;;;;;;;;;;;;;;5081130;28;19924;-78
2021/10/18 15:28:59;;;;;;;;;;;;;;;;;;5080296;28;19920;-78
2021/10/18 15:31:27;;;;;;;;;;;;;;;;;;5080723;28;19920;-76
2021/10/18 15:33:53;;;;;;;;;;;;;;;;;;5080549;28;20357;-78
2021/10/18 15:36:20;;;;;;;;;;;;;;;;;;5080000;28;19916;-77
2021/10/18 15:38:45;;;;;;;;;;;;;;;;;;5080726;28;20483;-78
2021/10/18 15:41:11;;;;;;;;;;;;;;;;;;5080299;28;19916;-79
2021/10/18 15:43:39;;;;;;;;;;;;;;;;;;5082555;28;20007;-79
2021/10/18 15:46:05;;;;;;;;;;;;;;;;;;5083324;28;19920;-78
2021/10/18 15:48:30;;;;;;;;;;;;;;;;;;5079594;28;19935;-78
2021/10/18 15:50:56;;;;;;;;;;;;;;;;;;5075836;28;19921;-82
2021/10/18 15:53:21;;;;;;;;;;;;;;;;;;5075723;28;20388;-77
2021/10/18 15:55:48;;;;;;;;;;;;;;;;;;5075746;28;19916;-78
2021/10/18 15:58:14;;;;;;;;;;;;;;;;;;5075579;28;20353;-78
2021/10/18 16:00:39;;;;;;;;;;;;;;;;;;5075840;28;19923;-77
2021/10/18 16:03:04;;;;;;;;;;;;;;;;;;5074911;28;20365;-78
2021/10/18 16:05:30;;;;;;;;;;;;;;;;;;5075497;28;20296;-78
2021/10/18 16:07:56;;;;;;;;;;;;;;;;;;5076435;28;20306;-77
2021/10/18 16:10:21;;;;;;;;;;;;;;;;;;5075874;28;19923;-77
2021/10/18 16:12:47;;;;;;;;;;;;;;;;;;5079454;28;20007;-78
2021/10/18 16:15:12;;;;;;;;;;;;;;;;;;5079374;28;20389;-78
2021/10/18 16:17:38;;;;;;;;;;;;;;;;;;5078805;28;19973;-78
2021/10/18 16:20:06;;;;;;;;;;;;;;;;;;5078790;28;19924;-78
2021/10/18 16:22:35;;;;;;;;;;;;;;;;;;5079116;28;19920;-77
2021/10/18 16:25:05;;;;;;;;;;;;;;;;;;5080021;28;19917;-80
2021/10/18 16:27:37;;;;;;;;;;;;;;;;;;5087760;28;19917;-80
2021/10/18 16:30:03;;;;;;;;;;;;;;;;;;5107805;28;19923;-82
2021/10/18 16:32:38;;;;;;;;;;;;;;;;;;5102958;28;19931;-81
2021/10/18 16:35:04;;;;;;;;;;;;;;;;;;5089379;28;20001;-86
2021/10/18 16:37:30;;;;;;;;;;;;;;;;;;5109290;27;20296;-83
2021/10/18 16:39:55;;;;;;;;;;;;;;;;;;5088737;28;19916;-83
2021/10/18 16:42:21;;;;;;;;;;;;;;;;;;5082496;28;19924;-81
2021/10/18 16:44:46;;;;;;;;;;;;;;;;;;5081899;28;19955;-79
2021/10/18 16:47:12;;;;;;;;;;;;;;;;;;5097072;28;19930;-80
2021/10/18 16:49:38;;;;;;;;;;;;;;;;;;5121298;28;19922;-80
2021/10/18 16:52:04;;;;;;;;;;;;;;;;;;5110835;28;20003;-80
2021/10/18 16:54:30;;;;;;;;;;;;;;;;;;5112674;27;20414;-80
2021/10/18 16:56:55;;;;;;;;;;;;;;;;;;5110356;28;19988;-81
2021/10/18 16:59:21;;;;;;;;;;;;;;;;;;5110817;28;20061;-80
2021/10/18 17:01:47;;;;;;;;;;;;;;;;;;5100944;28;20007;-81
2021/10/18 17:04:15;;;;;;;;;;;;;;;;;;5093447;28;19926;-83
2021/10/18 17:06:41;;;;;;;;;;;;;;;;;;5094197;28;19958;-82
2021/10/18 17:09:07;;;;;;;;;;;;;;;;;;5092444;28;20292;-82
2021/10/18 17:11:32;;;;;;;;;;;;;;;;;;5094092;28;19923;-81
2021/10/18 17:14:01;;;;;;;;;;;;;;;;;;5087550;28;19924;-78
2021/10/18 17:16:30;;;;;;;;;;;;;;;;;;5085523;28;19986;-82
2021/10/18 17:18:56;;;;;;;;;;;;;;;;;;5093390;28;20026;-81
2021/10/18 17:21:22;;;;;;;;;;;;;;;;;;5093944;28;19959;-79
2021/10/18 17:23:47;;;;;;;;;;;;;;;;;;5093718;28;20346;-81
2021/10/18 17:26:13;;;;;;;;;;;;;;;;;;5091405;28;19965;-77
2021/10/18 17:28:39;;;;;;;;;;;;;;;;;;5080148;28;19973;-78
2021/10/18 17:31:05;;;;;;;;;;;;;;;;;;5085287;28;20287;-79
2021/10/18 17:33:30;;;;;;;;;;;;;;;;;;5089545;28;19917;-79
2021/10/18 17:35:56;;;;;;;;;;;;;;;;;;5096871;28;19951;-78
2021/10/18 17:38:22;;;;;;;;;;;;;;;;;;5104073;28;19923;-78
2021/10/18 17:40:47;;;;;;;;;;;;;;;;;;5093569;28;20448;-78
2021/10/18 17:43:13;;;;;;;;;;;;;;;;;;5093590;28;19920;-80
2021/10/18 17:45:39;;;;;;;;;;;;;;;;;;5098356;28;20003;-80
2021/10/18 17:48:05;;;;;;;;;;;;;;;;;;5097564;28;19928;-79
2021/10/18 17:50:31;;;;;;;;;;;;;;;;;;5095174;28;20024;-79
2021/10/18 17:52:57;;;;;;;;;;;;;;;;;;5088333;28;19921;-79
2021/10/18 17:55:23;;;;;;;;;;;;;;;;;;5097927;28;19919;-78
2021/10/18 17:57:48;;;;;;;;;;;;;;;;;;5097557;28;19916;-78
2021/10/18 18:00:14;;;;;;;;;;;;;;;;;;5099408;28;20504;-78
2021/10/18 18:02:39;;;;;;;;;;;;;;;;;;5095853;28;20299;-79
2021/10/18 18:05:08;;;;;;;;;;;;;;;;;;5094019;28;19934;-77
2021/10/18 18:07:33;;;;;;;;;;;;;;;;;;5081855;28;20387;-78
2021/10/18 18:09:59;;;;;;;;;;;;;;;;;;5092244;28;19917;-78